ADDS METAR Data INFO
IDs: Format: Raw Decoded Include TAF

Data at: 2024 UTC 22 Apr 2018

METAR for:KSDF (Louisville Intl, KY, US)
Text:KSDF 221956Z 11009KT 10SM FEW090 BKN150 OVC250 23/05 A3013 RMK AO2 SLP201 T02280050
Temperature: 22.8°C ( 73°F)
Dewpoint: 5.0°C ( 41°F) [RH = 31%]
Pressure (altimeter):30.13 inches Hg (1020.4 mb) [Sea level pressure: 1020.1 mb]
Winds:from the ESE (110 degrees) at 10 MPH (9 knots; 4.6 m/s)
Visibility:10 or more sm (16+ km)
Ceiling:15000 feet AGL
Clouds: few clouds at 9000 feet AGL, broken clouds at 15000 feet AGL, overcast cloud deck at 25000 feet AGL